Marlin Aventurine — V7HE5 — position and weather

sailwx.info

Track history (hours):
 
Tides and Currents Weather Stations Pressure Air Temp Water Temp Dewpoint Dewpoint Depression Visibility Wind Speed Wind Dir Waves Ship Positions

Marlin Aventurine

Last reported at 2017-Sep-27 02:35 UTC. Time now 2017-Nov-20 09:45 UTC.
Position N 35°49' W 012°29'.
Warning: this ship's position is 54 days out of date.

Length 183 m; draft 10.7 m.

Type: Ship (hazmat cat D). MMSI: 538005808.

Date/timePositionNaut miles runAvg speedWind from/ knotsBaromVisibWave heightAir tempDewpointWater temp
2017-Sep-27 02:35N 35°49' W 012°29'213.6
2017-Sep-27 02:28N 35°49' W 012°27'6413.4
2017-Sep-26 21:40N 35°53' W 011°07'213.2
2017-Sep-26 21:31N 35°53' W 011°05'813.4
2017-Sep-26 20:57N 35°53' W 010°56'713.5
2017-Sep-26 20:25N 35°54' W 010°47'513.4
2017-Sep-26 20:00N 35°54' W 010°40'713.5
2017-Sep-26 19:30N 35°54' W 010°32'3713.4
2017-Sep-26 16:46N 35°56' W 009°46'412.8
2017-Sep-26 16:27N 35°56' W 009°41'613.2
2017-Sep-26 16:00N 35°56' W 009°34'713.4
2017-Sep-26 15:30N 35°56' W 009°26'713.2
2017-Sep-26 15:00N 35°56' W 009°18'1113.2
2017-Sep-26 14:12N 35°57' W 009°05'212.7
2017-Sep-26 14:00N 35°57' W 009°02'612.4
2017-Sep-26 13:29N 35°57' W 008°54'612.1
2017-Sep-26 13:00N 35°57' W 008°47'612.0
2017-Sep-26 12:30N 35°57' W 008°39'612.2
2017-Sep-26 12:00N 35°57' W 008°32'1412.7
2017-Sep-26 10:54N 35°57' W 008°14'1212.7
2017-Sep-26 09:58N 35°57' W 007°60'1413.1
2017-Sep-26 08:52N 35°57' W 007°42'713.4
2017-Sep-26 08:21N 35°58' W 007°33'513.8
2017-Sep-26 08:00N 35°58' W 007°27'713.7
2017-Sep-26 07:28N 35°58' W 007°18'613.5
2017-Sep-26 07:00N 35°58' W 007°10'713.3
2017-Sep-26 06:30N 35°58' W 007°02'713.1
2017-Sep-26 06:00N 35°58' W 006°54'3613.0
2017-Sep-26 03:11N 35°58' W 006°09'2713.0
2017-Sep-26 01:09N 35°58' W 005°36'110.0
2017-Sep-26 01:00N 35°58' W 005°35'5 9.3
2017-Sep-26 00:30N 35°60' W 005°29'4 8.6
2017-Sep-25 23:59N 36°02' W 005°25'2 4.5
2017-Sep-25 23:30N 36°04' W 005°24'1 1.9
2017-Sep-25 23:00N 36°05' W 005°24'2 4.1
2017-Sep-25 22:30N 36°07' W 005°23'1 1.7
2017-Sep-25 21:55N 36°08' W 005°22'0 0.1
2017-Sep-25 21:28N 36°08' W 005°22'0 0.0
2017-Sep-25 20:55N 36°08' W 005°22'0 0.1
2017-Sep-25 20:28N 36°08' W 005°22'0 0.1
2017-Sep-25 19:58N 36°08' W 005°22'0 0.0
2017-Sep-25 19:28N 36°08' W 005°22'0 0.1
2017-Sep-25 18:43N 36°08' W 005°22'0 0.0
2017-Sep-25 18:28N 36°08' W 005°22'0 0.1
2017-Sep-25 17:58N 36°08' W 005°22'0 0.1
2017-Sep-25 17:07N 36°08' W 005°22'0 0.0
2017-Sep-25 16:43N 36°08' W 005°22'0 0.1
2017-Sep-25 16:28N 36°08' W 005°22'0 0.0
2017-Sep-25 15:55N 36°08' W 005°22'0 0.0
2017-Sep-25 15:28N 36°08' W 005°22'0 0.0
2017-Sep-25 14:52N 36°08' W 005°22'0 0.0
2017-Sep-25 13:40N 36°08' W 005°22'0 0.1
2017-Sep-25 13:25N 36°08' W 005°22'0 0.1
2017-Sep-25 11:51N 36°08' W 005°22'0 0.4
2017-Sep-25 11:28N 36°08' W 005°22'3 5.4
2017-Sep-25 10:59N 36°05' W 005°22'1 2.8
2017-Sep-25 10:30N 36°04' W 005°20'1 2.5
2017-Sep-25 10:00N 36°05' W 005°19'2 4.6
2017-Sep-25 09:28N 36°05' W 005°16'9 1.3
2017-Sep-25 02:40N 36°10' W 005°07'1 6.3
2017-Sep-25 02:30N 36°09' W 005°08'611.0
2017-Sep-25 02:00N 36°05' W 005°13'3 6.5
2017-Sep-25 01:30N 36°04' W 005°17'610.6
2017-Sep-25 00:59N 36°05' W 005°10'20811.8
2017-Sep-24 07:22N 37°12' W 001°05'613.3
2017-Sep-24 06:56N 37°16' W 000°59'613.3
2017-Sep-24 06:30N 37°20' W 000°54'713.1
2017-Sep-24 06:00N 37°24' W 000°48'713.2
2017-Sep-24 05:30N 37°28' W 000°41'713.0
2017-Sep-24 05:00N 37°33' W 000°35'613.1
2017-Sep-24 04:30N 37°38' W 000°30'713.2
2017-Sep-24 04:00N 37°43' W 000°25'  
2017-Sep-21 06:06N 41°14' E 002°17'0 1.0
2017-Sep-21 05:59N 41°14' E 002°16'0 0.1
2017-Sep-21 05:30N 41°14' E 002°16'11 3.2
2017-Sep-21 02:05N 41°09' E 002°30'413.1
2017-Sep-21 01:47N 41°08' E 002°35'613.1
2017-Sep-21 01:19N 41°05' E 002°42'413.3
2017-Sep-21 01:00N 41°03' E 002°47'713.7
2017-Sep-21 00:29N 40°60' E 002°55'713.3
2017-Sep-21 00:00N 40°56' E 003°02'  
2017-Sep-17 13:27N 39°05' E 009°02'0 0.6
2017-Sep-17 13:00N 39°05' E 009°02'2 4.1
2017-Sep-17 12:29N 39°04' E 009°04'0 0.9
2017-Sep-17 11:58N 39°04' E 009°04'0 0.1
2017-Sep-17 11:28N 39°04' E 009°04'0 0.1
2017-Sep-17 10:58N 39°04' E 009°04'0 0.1
2017-Sep-17 10:28N 39°04' E 009°04'0 0.0
2017-Sep-17 09:58N 39°04' E 009°04'0 0.0
2017-Sep-17 09:28N 39°04' E 009°04'0 0.0
2017-Sep-17 08:58N 39°04' E 009°04'0 0.1
2017-Sep-17 08:28N 39°04' E 009°04'0 0.0
2017-Sep-17 07:58N 39°04' E 009°04'0 0.1
2017-Sep-17 07:28N 39°04' E 009°04'0 0.0
2017-Sep-17 06:58N 39°04' E 009°04'0 0.0
2017-Sep-17 06:28N 39°04' E 009°04'0 0.1
2017-Sep-17 05:58N 39°04' E 009°05'0 0.0
2017-Sep-17 05:28N 39°04' E 009°05'0 0.0
2017-Sep-17 04:58N 39°04' E 009°05'0 0.0
2017-Sep-17 04:28N 39°04' E 009°05'0 0.1
2017-Sep-17 03:58N 39°04' E 009°04'0 0.1
2017-Sep-17 03:28N 39°04' E 009°05'0 0.1
2017-Sep-17 02:58N 39°04' E 009°04'  
Track history (hours):
 
Tides and Currents Weather Stations Pressure Air Temp Water Temp Dewpoint Dewpoint Depression Visibility Wind Speed Wind Dir Waves Ship Positions

Marlin Aventurine

Last reported at 2017-Sep-27 02:35 UTC. Time now 2017-Nov-20 09:45 UTC.
Position N 35°49' W 012°29'.
Warning: this ship's position is 54 days out of date.

Length 183 m; draft 10.7 m.

Type: Ship (hazmat cat D). MMSI: 538005808.

Date/timePositionNaut miles runAvg speedWind from/ knotsBaromVisibWave heightAir tempDewpointWater temp
2017-Sep-27 02:35N 35°49' W 012°29'213.6
2017-Sep-27 02:28N 35°49' W 012°27'6413.4
2017-Sep-26 21:40N 35°53' W 011°07'213.2
2017-Sep-26 21:31N 35°53' W 011°05'813.4
2017-Sep-26 20:57N 35°53' W 010°56'713.5
2017-Sep-26 20:25N 35°54' W 010°47'513.4
2017-Sep-26 20:00N 35°54' W 010°40'713.5
2017-Sep-26 19:30N 35°54' W 010°32'3713.4
2017-Sep-26 16:46N 35°56' W 009°46'412.8
2017-Sep-26 16:27N 35°56' W 009°41'613.2
2017-Sep-26 16:00N 35°56' W 009°34'713.4
2017-Sep-26 15:30N 35°56' W 009°26'713.2
2017-Sep-26 15:00N 35°56' W 009°18'1113.2
2017-Sep-26 14:12N 35°57' W 009°05'212.7
2017-Sep-26 14:00N 35°57' W 009°02'612.4
2017-Sep-26 13:29N 35°57' W 008°54'612.1
2017-Sep-26 13:00N 35°57' W 008°47'612.0
2017-Sep-26 12:30N 35°57' W 008°39'612.2
2017-Sep-26 12:00N 35°57' W 008°32'1412.7
2017-Sep-26 10:54N 35°57' W 008°14'1212.7
2017-Sep-26 09:58N 35°57' W 007°60'1413.1
2017-Sep-26 08:52N 35°57' W 007°42'713.4
2017-Sep-26 08:21N 35°58' W 007°33'513.8
2017-Sep-26 08:00N 35°58' W 007°27'713.7
2017-Sep-26 07:28N 35°58' W 007°18'613.5
2017-Sep-26 07:00N 35°58' W 007°10'713.3
2017-Sep-26 06:30N 35°58' W 007°02'713.1
2017-Sep-26 06:00N 35°58' W 006°54'3613.0
2017-Sep-26 03:11N 35°58' W 006°09'2713.0
2017-Sep-26 01:09N 35°58' W 005°36'110.0
2017-Sep-26 01:00N 35°58' W 005°35'5 9.3
2017-Sep-26 00:30N 35°60' W 005°29'4 8.6
2017-Sep-25 23:59N 36°02' W 005°25'2 4.5
2017-Sep-25 23:30N 36°04' W 005°24'1 1.9
2017-Sep-25 23:00N 36°05' W 005°24'2 4.1
2017-Sep-25 22:30N 36°07' W 005°23'1 1.7
2017-Sep-25 21:55N 36°08' W 005°22'0 0.1
2017-Sep-25 21:28N 36°08' W 005°22'0 0.0
2017-Sep-25 20:55N 36°08' W 005°22'0 0.1
2017-Sep-25 20:28N 36°08' W 005°22'0 0.1
2017-Sep-25 19:58N 36°08' W 005°22'0 0.0
2017-Sep-25 19:28N 36°08' W 005°22'0 0.1
2017-Sep-25 18:43N 36°08' W 005°22'0 0.0
2017-Sep-25 18:28N 36°08' W 005°22'0 0.1
2017-Sep-25 17:58N 36°08' W 005°22'0 0.1
2017-Sep-25 17:07N 36°08' W 005°22'0 0.0
2017-Sep-25 16:43N 36°08' W 005°22'0 0.1
2017-Sep-25 16:28N 36°08' W 005°22'0 0.0
2017-Sep-25 15:55N 36°08' W 005°22'0 0.0
2017-Sep-25 15:28N 36°08' W 005°22'0 0.0
2017-Sep-25 14:52N 36°08' W 005°22'0 0.0
2017-Sep-25 13:40N 36°08' W 005°22'0 0.1
2017-Sep-25 13:25N 36°08' W 005°22'0 0.1
2017-Sep-25 11:51N 36°08' W 005°22'0 0.4
2017-Sep-25 11:28N 36°08' W 005°22'3 5.4
2017-Sep-25 10:59N 36°05' W 005°22'1 2.8
2017-Sep-25 10:30N 36°04' W 005°20'1 2.5
2017-Sep-25 10:00N 36°05' W 005°19'2 4.6
2017-Sep-25 09:28N 36°05' W 005°16'9 1.3
2017-Sep-25 02:40N 36°10' W 005°07'1 6.3
2017-Sep-25 02:30N 36°09' W 005°08'611.0
2017-Sep-25 02:00N 36°05' W 005°13'3 6.5
2017-Sep-25 01:30N 36°04' W 005°17'610.6
2017-Sep-25 00:59N 36°05' W 005°10'20811.8
2017-Sep-24 07:22N 37°12' W 001°05'613.3
2017-Sep-24 06:56N 37°16' W 000°59'613.3
2017-Sep-24 06:30N 37°20' W 000°54'713.1
2017-Sep-24 06:00N 37°24' W 000°48'713.2
2017-Sep-24 05:30N 37°28' W 000°41'713.0
2017-Sep-24 05:00N 37°33' W 000°35'613.1
2017-Sep-24 04:30N 37°38' W 000°30'713.2
2017-Sep-24 04:00N 37°43' W 000°25'  
2017-Sep-21 06:06N 41°14' E 002°17'0 1.0
2017-Sep-21 05:59N 41°14' E 002°16'0 0.1
2017-Sep-21 05:30N 41°14' E 002°16'11 3.2
2017-Sep-21 02:05N 41°09' E 002°30'413.1
2017-Sep-21 01:47N 41°08' E 002°35'613.1
2017-Sep-21 01:19N 41°05' E 002°42'413.3
2017-Sep-21 01:00N 41°03' E 002°47'713.7
2017-Sep-21 00:29N 40°60' E 002°55'713.3
2017-Sep-21 00:00N 40°56' E 003°02'  
2017-Sep-17 13:27N 39°05' E 009°02'0 0.6
2017-Sep-17 13:00N 39°05' E 009°02'2 4.1
2017-Sep-17 12:29N 39°04' E 009°04'0 0.9
2017-Sep-17 11:58N 39°04' E 009°04'0 0.1
2017-Sep-17 11:28N 39°04' E 009°04'0 0.1
2017-Sep-17 10:58N 39°04' E 009°04'0 0.1
2017-Sep-17 10:28N 39°04' E 009°04'0 0.0
2017-Sep-17 09:58N 39°04' E 009°04'0 0.0
2017-Sep-17 09:28N 39°04' E 009°04'0 0.0
2017-Sep-17 08:58N 39°04' E 009°04'0 0.1
2017-Sep-17 08:28N 39°04' E 009°04'0 0.0
2017-Sep-17 07:58N 39°04' E 009°04'0 0.1
2017-Sep-17 07:28N 39°04' E 009°04'0 0.0
2017-Sep-17 06:58N 39°04' E 009°04'0 0.0
2017-Sep-17 06:28N 39°04' E 009°04'0 0.1
2017-Sep-17 05:58N 39°04' E 009°05'0 0.0
2017-Sep-17 05:28N 39°04' E 009°05'0 0.0
2017-Sep-17 04:58N 39°04' E 009°05'0 0.0
2017-Sep-17 04:28N 39°04' E 009°05'0 0.1
2017-Sep-17 03:58N 39°04' E 009°04'0 0.1
2017-Sep-17 03:28N 39°04' E 009°05'0 0.1
2017-Sep-17 02:58N 39°04' E 009°04'  

Dump ship's entire track history